Time;durP1;ratioP1;P1;durP2;ratioP2;P2;SDS_P1;SDS_P2;PMS_P1;PMS_P2;Temp;Humidity;BMP_temperature;BMP_pressure;BME280_temperature;BME280_humidity;BME280_pressure;Samples;Min_cycle;Max_cycle;Signal;HPM_P1;HPM_P2
2021/01/13 00:00:40;;;;;;;1.52;1.50;;;;;;;0.56;85.76;97933.75;5095386;28;20026;-89
2021/01/13 00:03:05;;;;;;;1.17;1.00;;;;;;;0.61;85.44;97952.41;5096178;28;20475;-88
2021/01/13 00:05:31;;;;;;;1.98;1.88;;;;;;;0.79;84.88;97974.91;5096341;28;20085;-88
2021/01/13 00:07:56;;;;;;;0.50;0.50;;;;;;;0.72;85.64;97961.31;5095188;28;20035;-88
2021/01/13 00:10:22;;;;;;;0.20;0.20;;;;;;;0.90;85.12;97990.47;5095154;28;20020;-88
2021/01/13 00:12:47;;;;;;;0.85;0.85;;;;;;;0.85;85.19;97971.78;5096338;28;20452;-88
2021/01/13 00:15:13;;;;;;;0.30;0.30;;;;;;;0.89;84.82;97976.09;5096253;28;20043;-88
2021/01/13 00:17:39;;;;;;;1.00;1.00;;;;;;;0.86;85.75;97973.34;5095173;28;20031;-88
2021/01/13 00:20:06;;;;;;;0.30;0.30;;;;;;;0.77;86.10;97960.94;5096204;28;20491;-88
2021/01/13 00:22:32;;;;;;;0.40;0.40;;;;;;;0.87;85.53;97969.47;5094329;28;20100;-88
2021/01/13 00:24:57;;;;;;;0.28;0.28;;;;;;;0.90;85.09;97971.44;5096083;28;20024;-88
2021/01/13 00:27:23;;;;;;;0.55;0.55;;;;;;;0.67;84.99;97939.19;5096121;28;20059;-88
2021/01/13 00:29:50;;;;;;;0.20;0.20;;;;;;;0.71;85.01;97954.34;5095008;28;20043;-89
2021/01/13 00:32:15;;;;;;;0.30;0.30;;;;;;;0.77;84.72;97962.88;5096005;28;20058;-88
2021/01/13 00:34:41;;;;;;;0.30;0.30;;;;;;;0.86;84.72;97957.81;5095866;28;20472;-88
2021/01/13 00:37:07;;;;;;;0.20;0.20;;;;;;;0.90;83.78;97976.88;5094983;28;20020;-86
2021/01/13 00:39:33;;;;;;;0.40;0.40;;;;;;;1.02;84.25;97984.63;5094717;28;20069;-88
2021/01/13 00:42:00;;;;;;;0.30;0.30;;;;;;;1.02;83.72;97966.38;5095907;28;20023;-88
2021/01/13 00:44:26;;;;;;;0.93;0.93;;;;;;;0.86;83.21;97948.88;5094569;28;20020;-88
2021/01/13 00:46:51;;;;;;;0.45;0.45;;;;;;;1.06;82.56;97977.22;5094489;28;20110;-88
2021/01/13 00:49:17;;;;;;;0.30;0.30;;;;;;;0.94;82.71;97955.88;5095692;28;20027;-89
2021/01/13 00:51:43;;;;;;;1.00;1.00;;;;;;;1.15;82.39;97983.03;5094209;28;20021;-88
2021/01/13 00:54:11;;;;;;;0.75;0.75;;;;;;;1.05;83.05;97976.44;5094844;28;20097;-88
2021/01/13 00:56:44;;;;;;;0.35;0.35;;;;;;;0.89;82.98;97929.09;5094558;28;20051;-88
2021/01/13 00:59:10;;;;;;;0.28;0.28;;;;;;;1.12;82.36;97983.81;5094469;28;20035;-88
2021/01/13 01:01:37;;;;;;;0.38;0.38;;;;;;;0.92;83.54;97966.34;5094303;28;20093;-89
2021/01/13 01:04:04;;;;;;;0.73;0.73;;;;;;;0.59;84.03;97922.13;5094832;28;20034;-88
2021/01/13 01:06:30;;;;;;;0.25;0.25;;;;;;;0.65;85.06;97961.34;5095379;28;20026;-88
2021/01/13 01:08:55;;;;;;;3.55;0.68;;;;;;;0.62;85.70;97942.28;5095294;28;20035;-88
2021/01/13 01:11:27;;;;;;;0.50;0.50;;;;;;;0.58;87.04;97961.34;5094122;28;20111;-88
2021/01/13 01:13:53;;;;;;;0.95;0.95;;;;;;;0.47;86.01;97933.38;5093670;28;20086;-88
2021/01/13 01:16:18;;;;;;;0.20;0.20;;;;;;;0.57;85.83;97939.97;5094016;28;20027;-88
2021/01/13 01:18:44;;;;;;;0.25;0.25;;;;;;;0.49;86.66;97960.94;5095029;28;20120;-88
2021/01/13 01:21:09;;;;;;;0.68;0.68;;;;;;;0.43;87.19;97961.69;5094023;28;20020;-88
2021/01/13 01:23:36;;;;;;;3.53;1.65;;;;;;;0.29;87.79;97938.81;5093842;28;20020;-88
2021/01/13 01:26:06;;;;;;;0.43;0.43;;;;;;;0.20;88.00;97953.91;5094968;28;20024;-88
2021/01/13 01:28:32;;;;;;;0.57;0.57;;;;;;;0.22;88.64;97957.81;5093793;28;20027;-88
2021/01/13 01:30:58;;;;;;;0.20;0.20;;;;;;;0.22;88.32;97941.50;5094920;28;20017;-88
2021/01/13 01:33:23;;;;;;;0.40;0.40;;;;;;;0.25;88.28;97942.66;5093894;28;20044;-88
2021/01/13 01:35:49;;;;;;;0.98;0.98;;;;;;;0.25;88.88;97965.19;5094811;28;20031;-88
2021/01/13 01:38:16;;;;;;;0.30;0.30;;;;;;;0.10;87.04;97922.09;5094886;28;20027;-88
2021/01/13 01:40:41;;;;;;;0.20;0.20;;;;;;;0.42;85.25;97928.34;5093536;28;20060;-88
2021/01/13 01:43:07;;;;;;;0.30;0.30;;;;;;;0.55;84.94;97931.44;5094221;28;20474;-87
2021/01/13 01:45:33;;;;;;;0.30;0.30;;;;;;;0.91;82.52;97937.59;5094635;28;20016;-86
2021/01/13 01:47:58;;;;;;;1.95;1.83;;;;;;;1.01;81.85;97945.78;5094561;28;20108;-87
2021/01/13 01:50:29;;;;;;;0.28;0.28;;;;;;;1.04;81.87;97950.41;5094432;28;20409;-87
2021/01/13 01:53:22;;;;;;;3.00;0.90;;;;;;;1.00;82.42;97943.44;5093483;28;20038;-88
2021/01/13 01:55:51;;;;;;;0.20;0.20;;;;;;;1.04;81.84;97938.75;5093682;28;20020;-87
2021/01/13 01:58:24;;;;;;;0.93;0.93;;;;;;;0.78;82.70;97923.66;5094409;28;20095;-87
2021/01/13 02:00:54;;;;;;;0.45;0.45;;;;;;;0.86;83.20;97948.88;5093384;28;20028;-86
2021/01/13 02:03:22;;;;;;;1.00;1.00;;;;;;;0.86;82.85;97941.50;5093160;28;20046;-87
2021/01/13 02:05:53;;;;;;;0.28;0.28;;;;;;;0.77;83.62;97941.91;5094232;28;20460;-87
2021/01/13 02:08:23;;;;;;;0.43;0.43;;;;;;;0.78;82.94;97940.72;5094126;28;20032;-87
2021/01/13 02:10:49;;;;;;;1.48;1.38;;;;;;;0.70;83.21;97930.28;5094120;28;20024;-87
2021/01/13 02:13:15;;;;;;;0.30;0.30;;;;;;;0.85;81.22;97933.72;5093020;28;20069;-87
2021/01/13 02:15:41;;;;;;;0.30;0.30;;;;;;;1.11;80.46;97952.34;5093148;28;20020;-87
2021/01/13 02:18:15;;;;;;;0.20;0.20;;;;;;;0.99;82.02;97950.03;5094112;28;20123;-87
2021/01/13 02:20:40;;;;;;;0.30;0.30;;;;;;;0.94;82.60;97953.94;5092804;28;20051;-87
2021/01/13 02:23:10;;;;;;;0.50;0.50;;;;;;;0.81;82.83;97937.25;5093940;28;20056;-87
2021/01/13 02:26:04;;;;;;;0.63;0.63;;;;;;;0.67;83.53;97917.44;5094101;28;20067;-87
2021/01/13 02:28:37;;;;;;;0.30;0.30;;;;;;;0.59;83.07;97905.81;5067881;28;20443;-86
2021/01/13 02:31:02;;;;;;;0.20;0.20;;;;;;;0.87;83.38;97953.16;5092842;28;20030;-87
2021/01/13 02:33:57;;;;;;;0.63;0.63;;;;;;;0.91;83.13;97934.88;5092365;28;20052;-87
2021/01/13 02:37:04;;;;;;;0.77;0.75;;;;;;;0.87;83.23;97945.78;5093375;28;20407;-87
2021/01/13 02:39:34;;;;;;;0.30;0.30;;;;;;;0.87;82.89;97942.28;5092297;28;20032;-87
2021/01/13 02:42:00;;;;;;;1.42;0.65;;;;;;;0.85;81.31;97918.19;5093007;28;20364;-87
2021/01/13 02:44:29;;;;;;;0.28;0.28;;;;;;;0.78;81.87;97907.34;5093479;28;20032;-87
2021/01/13 02:46:55;;;;;;;0.80;0.30;;;;;;;0.75;82.87;97906.19;5092403;28;20490;-88
2021/01/13 02:49:38;;;;;;;0.50;0.50;;;;;;;0.77;83.38;97944.63;5092580;28;20028;-87
2021/01/13 02:52:23;;;;;;;0.20;0.20;;;;;;;0.96;82.56;97967.16;5092692;28;20487;-88
2021/01/13 02:54:55;;;;;;;0.45;0.45;;;;;;;0.65;83.11;97919.78;5092732;28;20081;-88
2021/01/13 02:57:38;;;;;;;0.40;0.40;;;;;;;0.75;84.13;97955.13;5092278;28;20026;-87
2021/01/13 03:00:08;;;;;;;0.30;0.30;;;;;;;0.71;84.25;97959.78;5092449;28;20028;-87
2021/01/13 03:02:36;;;;;;;0.40;0.40;;;;;;;0.56;84.08;97932.97;5093035;28;20467;-88
2021/01/13 03:05:03;;;;;;;0.30;0.30;;;;;;;0.57;82.46;97921.72;5093685;28;20024;-87
2021/01/13 03:07:34;;;;;;;0.70;0.70;;;;;;;0.77;83.08;97946.56;5092166;28;20059;-87
2021/01/13 03:10:24;;;;;;;0.98;0.85;;;;;;;0.64;83.13;97929.88;5092490;28;20024;-86
2021/01/13 03:12:58;;;;;;;0.45;0.45;;;;;;;0.80;82.67;97941.13;5092342;28;20070;-87
2021/01/13 03:15:26;;;;;;;0.50;0.50;;;;;;;0.64;83.44;97929.88;5092628;28;20024;-87
2021/01/13 03:18:15;;;;;;;0.22;0.22;;;;;;;0.54;83.40;97919.81;5092459;28;20032;-87
2021/01/13 03:20:53;;;;;;;0.20;0.20;;;;;;;0.68;83.98;97944.25;5093373;28;20035;-87
2021/01/13 03:23:22;;;;;;;0.20;0.20;;;;;;;0.69;84.70;97943.09;5092391;28;20032;-87
2021/01/13 03:26:06;;;;;;;0.20;0.20;;;;;;;0.57;84.66;97946.19;5093333;28;20028;-88
2021/01/13 03:28:34;;;;;;;0.70;0.68;;;;;;;0.59;84.67;97943.09;5093301;28;20103;-87
2021/01/13 03:31:00;;;;;;;0.30;0.30;;;;;;;0.36;85.45;97933.34;5093395;28;20383;-88
2021/01/13 03:33:25;;;;;;;2.72;0.57;;;;;;;0.48;85.36;97948.53;5093480;28;20047;-87
2021/01/13 03:36:05;;;;;;;0.52;0.52;;;;;;;0.28;85.48;97928.31;5092952;28;20383;-87
2021/01/13 03:38:32;;;;;;;0.25;0.25;;;;;;;0.42;85.53;97958.22;5093625;28;20039;-88
2021/01/13 03:41:06;;;;;;;0.28;0.28;;;;;;;0.42;85.41;97977.25;5093161;28;20020;-87
2021/01/13 03:43:37;;;;;;;0.30;0.30;;;;;;;0.44;84.39;97957.81;5091964;28;20024;-87
2021/01/13 03:46:08;;;;;;;0.40;0.40;;;;;;;0.10;84.56;97903.09;5092057;28;20109;-87
2021/01/13 03:48:47;;;;;;;0.30;0.30;;;;;;;0.52;84.36;97970.25;5092468;28;20251;-87
2021/01/13 03:51:40;;;;;;;1.17;1.02;;;;;;;0.45;84.77;97964.81;5093053;28;20523;-87
2021/01/13 03:54:07;;;;;;;0.25;0.25;;;;;;;0.40;84.97;97955.91;5093057;28;20024;-88
2021/01/13 03:56:55;;;;;;;1.40;1.17;;;;;;;0.45;86.58;97964.81;5092544;28;20055;-87
2021/01/13 03:59:29;;;;;;;;;;;;;;;0.43;86.45;97954.31;5096088;28;20487;-87
2021/01/13 04:01:59;;;;;;;0.55;0.55;;;;;;;0.43;85.89;97967.91;5095726;28;19903;-87
2021/01/13 04:04:32;;;;;;;5.75;1.42;;;;;;;0.37;85.87;97937.63;5096595;28;20102;-87
2021/01/13 04:07:01;;;;;;;0.28;0.28;;;;;;;0.49;85.85;97944.63;5095149;28;20028;-87
2021/01/13 04:09:31;;;;;;;0.25;0.25;;;;;;;0.48;85.58;97945.81;5096394;28;20472;-87
2021/01/13 04:12:21;;;;;;;0.57;0.57;;;;;;;0.45;85.69;97946.56;5096773;28;20054;-87
2021/01/13 04:14:54;;;;;;;0.45;0.45;;;;;;;0.48;86.32;97964.84;5112195;28;20027;-87
2021/01/13 04:17:20;;;;;;;0.57;0.40;;;;;;;0.44;86.78;97934.16;5095107;28;20027;-87
2021/01/13 04:19:46;;;;;;;1.30;1.30;;;;;;;0.71;86.19;97954.34;5096140;28;20074;-87
2021/01/13 04:22:13;;;;;;;0.50;0.50;;;;;;;0.57;85.01;97937.25;5096088;28;20106;-87
2021/01/13 04:24:41;;;;;;;1.02;0.93;;;;;;;0.51;85.47;97931.44;5096029;28;20107;-87
2021/01/13 04:27:07;;;;;;;0.20;0.20;;;;;;;0.66;85.94;97943.09;5096102;28;20016;-87
2021/01/13 04:29:33;;;;;;;1.17;1.10;;;;;;;0.36;86.08;97908.16;5095601;28;20384;-87
2021/01/13 04:31:59;;;;;;;0.20;0.20;;;;;;;0.60;86.33;97955.53;5095637;28;20022;-87
2021/01/13 04:34:24;;;;;;;0.30;0.30;;;;;;;0.62;85.94;97970.25;5095029;28;20023;-87
2021/01/13 04:36:50;;;;;;;0.38;0.38;;;;;;;0.50;86.59;97953.56;5096046;28;20035;-87
2021/01/13 04:39:19;;;;;;;1.08;0.95;;;;;;;0.68;86.73;97978.81;5095704;28;20023;-87
2021/01/13 04:42:05;;;;;;;0.70;0.70;;;;;;;0.76;85.26;97992.00;5095738;28;20089;-87
2021/01/13 04:44:45;;;;;;;0.30;0.30;;;;;;;0.61;84.33;97933.38;5094451;28;20067;-87
2021/01/13 04:47:11;;;;;;;0.30;0.30;;;;;;;0.91;84.54;97989.28;5095616;28;20456;-87
2021/01/13 04:49:38;;;;;;;0.73;0.73;;;;;;;1.01;84.08;97986.56;5094267;28;20089;-87
2021/01/13 04:52:16;;;;;;;0.88;0.88;;;;;;;0.91;84.49;97981.91;5094491;28;20084;-87
2021/01/13 04:54:46;;;;;;;0.77;0.77;;;;;;;0.76;85.56;97985.81;5095176;28;20102;-87
2021/01/13 04:57:49;;;;;;;0.40;0.40;;;;;;;0.76;85.35;97986.56;5094390;28;20024;-87
2021/01/13 05:00:49;;;;;;;0.20;0.20;;;;;;;0.62;85.47;97980.34;5095398;28;20023;-87
2021/01/13 05:03:23;;;;;;;1.25;0.63;;;;;;;0.56;86.88;98001.69;5083128;28;20071;-87
2021/01/13 05:05:55;;;;;;;0.57;0.57;;;;;;;0.58;86.45;97985.81;5095094;28;20045;-87
2021/01/13 05:08:28;;;;;;;0.70;0.70;;;;;;;0.51;86.49;97979.56;5095218;28;20024;-87
2021/01/13 05:11:00;;;;;;;0.77;0.77;;;;;;;0.54;86.10;97970.66;5094232;28;20032;-87
2021/01/13 05:13:33;;;;;;;0.40;0.40;;;;;;;0.54;86.47;97978.81;5093624;28;20016;-87
2021/01/13 05:16:09;;;;;;;0.25;0.25;;;;;;;0.75;85.75;98004.06;5095039;28;20156;-86
2021/01/13 05:18:43;;;;;;;0.30;0.30;;;;;;;1.18;83.08;98009.47;5094855;28;20137;-87
2021/01/13 05:21:20;;;;;;;0.30;0.30;;;;;;;1.24;82.53;98002.47;5094986;28;20080;-86
2021/01/13 05:23:49;;;;;;;0.50;0.50;;;;;;;1.13;81.80;97958.19;5094778;28;20027;-87
2021/01/13 05:26:22;;;;;;;1.40;0.93;;;;;;;1.32;81.79;97984.19;5094926;28;20024;-87
2021/01/13 05:29:04;;;;;;;0.45;0.45;;;;;;;1.47;81.37;98015.63;5095029;28;20076;-86
2021/01/13 05:31:35;;;;;;;0.40;0.40;;;;;;;1.70;80.06;98021.38;5094797;28;20077;-87
2021/01/13 05:34:02;;;;;;;0.95;0.95;;;;;;;1.76;79.20;98027.19;5093228;28;20504;-87
2021/01/13 05:36:32;;;;;;;0.20;0.20;;;;;;;1.59;79.79;98015.22;5093566;28;20020;-87
2021/01/13 05:39:03;;;;;;;0.30;0.30;;;;;;;1.90;78.80;98008.88;5093576;28;20467;-87
2021/01/13 05:41:29;;;;;;;0.20;0.20;;;;;;;1.94;78.40;98020.53;5093943;28;20131;-85
2021/01/13 05:43:58;;;;;;;0.45;0.45;;;;;;;1.82;77.89;97991.00;5093561;28;20445;-88
2021/01/13 05:46:23;;;;;;;0.20;0.20;;;;;;;1.76;79.11;98008.16;5093233;28;20024;-87
2021/01/13 05:48:50;;;;;;;0.30;0.30;;;;;;;1.88;79.27;98024.81;5094214;28;20043;-88
2021/01/13 05:51:25;;;;;;;0.40;0.40;;;;;;;1.69;79.13;97989.13;5093146;28;20051;-86
2021/01/13 05:53:51;;;;;;;0.77;0.77;;;;;;;1.75;80.21;97993.00;5093073;28;20036;-88
2021/01/13 05:56:18;;;;;;;0.30;0.30;;;;;;;1.70;80.20;97991.44;5094381;28;20016;-87
2021/01/13 05:58:50;;;;;;;0.82;0.82;;;;;;;1.73;80.05;97998.06;5093078;28;20028;-87
2021/01/13 06:01:35;;;;;;;1.75;1.67;;;;;;;1.95;80.18;98019.34;5093075;28;20443;-87
2021/01/13 06:04:04;;;;;;;0.20;0.20;;;;;;;1.86;79.56;98015.50;5094049;28;20547;-87
2021/01/13 06:06:35;;;;;;;1.55;0.68;;;;;;;1.72;79.52;97983.66;5093181;28;20024;-87
2021/01/13 06:09:02;;;;;;;0.63;0.63;;;;;;;2.00;79.59;98029.84;5094258;28;20016;-87
2021/01/13 06:11:29;;;;;;;0.82;0.82;;;;;;;1.99;79.87;98032.94;5093840;28;20025;-88
2021/01/13 06:13:56;;;;;;;0.75;0.75;;;;;;;1.97;79.93;98027.13;5092537;28;20118;-87
2021/01/13 06:16:22;;;;;;;0.40;0.40;;;;;;;1.84;80.08;97999.56;5092701;28;20020;-87
2021/01/13 06:18:51;;;;;;;0.65;0.65;;;;;;;1.84;80.18;97998.78;5093629;28;20399;-86
2021/01/13 06:21:17;;;;;;;0.63;0.63;;;;;;;1.90;80.59;98014.31;5092335;28;20088;-86
2021/01/13 06:23:48;;;;;;;0.50;0.50;;;;;;;1.87;80.62;98015.09;5092897;28;20028;-86
2021/01/13 06:26:15;;;;;;;0.50;0.50;;;;;;;2.04;79.80;98032.56;5093939;28;20047;-85
2021/01/13 06:28:58;;;;;;;1.85;1.75;;;;;;;2.11;79.55;98040.69;5093517;28;20028;-86
2021/01/13 06:31:26;;;;;;;0.47;0.47;;;;;;;2.17;79.02;98050.00;5093380;28;20023;-86
2021/01/13 06:34:16;;;;;;;1.70;1.67;;;;;;;2.22;78.96;98041.44;5092451;28;20052;-86
2021/01/13 06:37:15;;;;;;;1.85;1.75;;;;;;;2.25;78.40;98046.06;5092466;28;20049;-85
2021/01/13 06:39:40;;;;;;;0.40;0.40;;;;;;;2.14;79.16;98034.44;5092612;28;20088;-86
2021/01/13 06:42:06;;;;;;;0.75;0.75;;;;;;;2.17;78.92;98028.19;5093594;28;20020;-86
2021/01/13 06:44:48;;;;;;;3.17;1.20;;;;;;;2.03;80.16;98023.63;5092540;28;20464;-86
2021/01/13 06:47:13;;;;;;;0.40;0.40;;;;;;;2.10;79.56;98016.56;5093451;28;20016;-86
2021/01/13 06:49:39;;;;;;;0.93;0.93;;;;;;;2.12;80.01;98031.34;5092629;28;20383;-86
2021/01/13 06:52:07;;;;;;;0.50;0.50;;;;;;;2.20;79.25;98041.03;5093470;28;20485;-86
2021/01/13 06:54:33;;;;;;;;;;;;;;;2.45;78.77;98055.31;5092611;28;20077;-88
2021/01/13 06:56:59;;;;;;;0.35;0.35;;;;;;;2.26;78.93;98022.31;5093644;28;19913;-88
2021/01/13 06:59:26;;;;;;;0.80;0.80;;;;;;;2.35;77.74;98039.78;5092451;28;20024;-87
2021/01/13 07:01:58;;;;;;;0.73;0.73;;;;;;;2.43;78.14;98016.00;5092016;28;20483;-86
2021/01/13 07:04:26;;;;;;;2.25;0.90;;;;;;;2.47;77.29;98009.34;5092217;28;20024;-86
2021/01/13 07:07:02;;;;;;;0.53;0.53;;;;;;;2.52;77.37;98004.66;5092198;28;20024;-86
2021/01/13 07:09:50;;;;;;;1.50;1.25;;;;;;;2.73;76.97;98038.00;5092327;28;20486;-86
2021/01/13 07:12:18;;;;;;;1.17;1.05;;;;;;;2.85;77.37;98067.53;5092226;28;20490;-86
2021/01/13 07:14:47;;;;;;;1.55;1.02;;;;;;;2.69;77.35;98025.56;5091897;28;20020;-86
2021/01/13 07:17:17;;;;;;;0.88;0.88;;;;;;;2.91;76.94;98058.91;5092180;28;20455;-85
2021/01/13 07:19:45;;;;;;;2.63;1.85;;;;;;;2.71;76.45;98034.13;5093271;28;20029;-85
2021/01/13 07:22:11;;;;;;;1.33;1.20;;;;;;;2.68;76.52;98026.75;5091939;28;20012;-86
2021/01/13 07:24:37;;;;;;;1.30;1.30;;;;;;;2.90;77.55;98052.69;5092053;28;20032;-86
2021/01/13 07:27:03;;;;;;;0.40;0.40;;;;;;;2.91;76.88;98042.53;5092860;28;20403;-86
2021/01/13 07:29:28;;;;;;;0.60;0.60;;;;;;;2.84;76.44;98021.53;5093270;28;20031;-86
2021/01/13 07:31:57;;;;;;;0.55;0.55;;;;;;;3.10;76.71;98066.56;5093897;28;20024;-86
2021/01/13 07:34:33;;;;;;;0.30;0.30;;;;;;;2.98;76.25;98037.03;5096941;28;20016;-86
2021/01/13 07:37:02;;;;;;;0.50;0.50;;;;;;;3.17;76.40;98080.94;5095625;28;20106;-87
2021/01/13 07:39:43;;;;;;;0.47;0.47;;;;;;;3.30;75.57;98089.41;5095717;28;20080;-86
2021/01/13 07:42:34;;;;;;;0.55;0.55;;;;;;;3.67;75.72;98080.50;5096876;28;20028;-86
2021/01/13 07:45:14;;;;;;;6.13;5.63;;;;;;;3.56;73.49;98034.16;5095746;28;20164;-86
2021/01/13 07:48:08;;;;;;;1.58;1.48;;;;;;;3.90;72.46;98074.41;5095493;28;20031;-86
2021/01/13 07:50:42;;;;;;;0.73;0.73;;;;;;;3.99;73.10;98091.84;5096808;28;20016;-86
2021/01/13 07:53:27;;;;;;;0.77;0.77;;;;;;;4.00;73.19;98065.31;5095505;28;20499;-86
2021/01/13 07:56:01;;;;;;;9.55;6.80;;;;;;;4.24;71.49;98074.38;5095051;28;20023;-86
2021/01/13 07:58:32;;;;;;;1.42;1.42;;;;;;;3.95;73.30;98050.13;5095598;28;20031;-85
2021/01/13 08:01:11;;;;;;;1.40;1.30;;;;;;;3.93;73.10;98063.41;5096561;28;20027;-86
2021/01/13 08:04:17;;;;;;;1.17;1.17;;;;;;;4.04;74.18;98061.34;5096395;28;20502;-86
2021/01/13 08:06:48;;;;;;;0.30;0.30;;;;;;;3.82;74.67;98032.72;5096112;28;20479;-86
2021/01/13 08:09:22;;;;;;;3.83;2.30;;;;;;;3.91;74.28;98032.22;5095031;28;20016;-86
2021/01/13 08:12:06;;;;;;;1.90;1.80;;;;;;;4.33;73.94;98072.72;5096056;28;20020;-86
2021/01/13 08:14:43;;;;;;;0.50;0.50;;;;;;;4.47;73.37;98078.00;5095991;28;20082;-86
2021/01/13 08:17:50;;;;;;;1.60;1.50;;;;;;;4.32;74.63;98073.91;5094925;28;20016;-86
2021/01/13 08:20:34;;;;;;;1.52;1.50;;;;;;;4.49;72.85;98083.06;5096286;28;20043;-85
2021/01/13 08:23:02;;;;;;;0.40;0.40;;;;;;;4.53;72.71;98081.03;5094852;28;20480;-86
2021/01/13 08:25:28;;;;;;;;;;;;;;;4.43;72.86;98085.47;5094776;28;20028;-86
2021/01/13 08:28:00;;;;;;;1.38;1.27;;;;;;;4.50;73.56;98079.16;5095770;28;19954;-86
2021/01/13 08:30:30;;;;;;;0.45;0.45;;;;;;;4.41;72.60;98059.72;5095602;28;20472;-85
2021/01/13 08:32:57;;;;;;;0.75;0.70;;;;;;;4.70;73.48;98110.13;5095534;28;20090;-85
2021/01/13 08:35:34;;;;;;;0.85;0.85;;;;;;;4.61;72.42;98079.00;5095600;28;20049;-86
2021/01/13 08:38:10;;;;;;;0.93;0.90;;;;;;;4.80;71.96;98056.44;5096076;28;20067;-86
2021/01/13 08:40:39;;;;;;;0.60;0.47;;;;;;;5.17;71.60;98088.34;5094826;28;20024;-86
2021/01/13 08:43:13;;;;;;;0.30;0.30;;;;;;;5.11;68.06;98076.31;5093980;28;20031;-86
2021/01/13 08:45:45;;;;;;;2.45;1.95;;;;;;;5.49;70.33;98098.75;5094575;28;20459;-86
2021/01/13 08:48:12;;;;;;;1.23;1.20;;;;;;;5.72;69.71;98096.81;5095302;28;20035;-86
2021/01/13 08:50:39;;;;;;;1.30;1.30;;;;;;;5.54;69.97;98068.94;5094629;28;20105;-85
2021/01/13 08:53:05;;;;;;;2.55;2.45;;;;;;;5.73;69.59;98097.56;5095163;28;20099;-86
2021/01/13 08:55:32;;;;;;;8.43;4.18;;;;;;;5.78;69.56;98093.59;5095192;28;20027;-86
2021/01/13 08:58:07;;;;;;;3.60;2.78;;;;;;;5.93;69.65;98087.44;5094037;28;20024;-84
2021/01/13 09:00:35;;;;;;;1.98;1.88;;;;;;;6.04;68.37;98076.25;5095278;28;20468;-86
2021/01/13 09:03:23;;;;;;;1.85;1.75;;;;;;;6.21;68.36;98066.16;5094609;28;20559;-86
2021/01/13 09:05:49;;;;;;;2.35;2.25;;;;;;;6.24;67.65;98079.78;5095203;28;20475;-86
2021/01/13 09:08:15;;;;;;;3.55;1.70;;;;;;;5.84;69.94;98069.97;5093796;28;20027;-86
2021/01/13 09:10:54;;;;;;;1.17;1.10;;;;;;;5.79;67.68;98062.25;5093840;28;20210;-85
2021/01/13 09:13:31;;;;;;;1.00;1.00;;;;;;;5.67;69.00;98045.19;5094314;28;20028;-86
2021/01/13 09:15:57;;;;;;;1.73;1.70;;;;;;;5.58;70.55;98033.25;5095005;28;20035;-86
2021/01/13 09:18:23;;;;;;;0.40;0.40;;;;;;;5.92;69.86;98065.91;5094924;28;20028;-86
2021/01/13 09:20:50;;;;;;;2.92;2.65;;;;;;;5.95;70.70;98079.56;5094421;28;20016;-86
2021/01/13 09:23:22;;;;;;;1.10;1.10;;;;;;;5.64;69.66;98042.53;5093566;28;20032;-85
2021/01/13 09:25:55;;;;;;;2.17;1.15;;;;;;;5.48;68.14;98015.81;5094579;28;20100;-86
2021/01/13 09:28:20;;;;;;;0.75;0.75;;;;;;;5.88;70.97;98068.75;5093986;28;20023;-86
2021/01/13 09:30:46;;;;;;;1.02;1.02;;;;;;;5.99;69.52;98063.03;5093441;28;20387;-86
2021/01/13 09:33:16;;;;;;;1.77;1.67;;;;;;;6.07;70.11;98070.72;5094280;28;20040;-86
2021/01/13 09:35:47;;;;;;;1.55;1.45;;;;;;;6.07;70.29;98083.66;5094522;28;20043;-85
2021/01/13 09:38:14;;;;;;;4.90;3.20;;;;;;;6.00;69.30;98075.56;5094309;28;20031;-86
2021/01/13 09:41:05;;;;;;;1.08;0.82;;;;;;;5.91;69.93;98072.59;5094589;28;20034;-86
2021/01/13 09:43:33;;;;;;;0.85;0.85;;;;;;;5.98;69.27;98086.16;5093528;28;20108;-86
2021/01/13 09:46:25;;;;;;;0.85;0.85;;;;;;;5.71;68.95;98062.38;5093246;28;20162;-86
2021/01/13 09:48:59;;;;;;;4.30;2.17;;;;;;;5.78;69.77;98057.94;5076869;28;20028;-85
2021/01/13 09:51:26;;;;;;;1.63;1.52;;;;;;;5.78;68.54;98068.91;5093114;28;20047;-86
2021/01/13 09:53:53;;;;;;;4.03;3.72;;;;;;;5.55;69.64;98032.09;5092508;28;20116;-84
2021/01/13 09:56:20;;;;;;;7.03;4.40;;;;;;;5.84;70.55;98048.03;5092732;28;20103;-85
2021/01/13 09:58:47;;;;;;;2.40;2.30;;;;;;;5.68;68.98;98013.09;5092981;28;20024;-85
2021/01/13 10:01:15;;;;;;;7.38;5.05;;;;;;;5.91;69.40;98058.88;5093109;28;20016;-86
2021/01/13 10:03:43;;;;;;;2.35;2.15;;;;;;;5.98;69.36;98042.31;5092797;28;20028;-85
2021/01/13 10:06:20;;;;;;;0.88;0.88;;;;;;;6.01;69.95;98064.19;5092688;28;20024;-85
2021/01/13 10:08:47;;;;;;;2.15;1.42;;;;;;;6.00;69.70;98040.69;5092710;28;20055;-86
2021/01/13 10:11:15;;;;;;;2.15;2.00;;;;;;;5.82;69.64;98023.00;5092658;28;20027;-87
2021/01/13 10:13:42;;;;;;;7.85;1.45;;;;;;;6.03;70.78;98047.28;5092796;28;20482;-86
2021/01/13 10:16:09;;;;;;;4.10;1.53;;;;;;;5.69;69.15;98014.63;5092829;28;20032;-85
2021/01/13 10:18:47;;;;;;;3.20;3.00;;;;;;;5.76;71.82;98043.88;5094024;28;20250;-87
2021/01/13 10:21:13;;;;;;;1.90;1.80;;;;;;;5.53;70.41;98018.06;5093597;28;20124;-87
2021/01/13 10:23:41;;;;;;;0.60;0.60;;;;;;;5.59;70.82;98035.56;5093575;28;20479;-87
2021/01/13 10:26:08;;;;;;;2.03;1.88;;;;;;;5.86;70.47;98048.38;5092486;28;20020;-87
2021/01/13 10:28:35;;;;;;;1.67;1.63;;;;;;;5.91;71.02;98053.41;5092456;28;20085;-87
2021/01/13 10:31:01;;;;;;;1.73;1.63;;;;;;;5.74;70.67;98012.19;5092629;28;20054;-85
2021/01/13 10:33:49;;;;;;;2.50;2.30;;;;;;;5.94;69.93;98053.34;5092002;28;20508;-87
2021/01/13 10:36:31;;;;;;;0.60;0.60;;;;;;;5.81;67.62;98019.50;5093522;28;20028;-87
2021/01/13 10:39:20;;;;;;;2.65;2.55;;;;;;;6.13;68.39;98043.59;5092774;28;20028;-87
2021/01/13 10:41:51;;;;;;;2.22;2.05;;;;;;;6.21;67.20;98057.94;5092544;28;20020;-86
2021/01/13 10:44:20;;;;;;;1.67;1.05;;;;;;;6.04;67.69;98021.41;5093731;28;20098;-86
2021/01/13 10:46:49;;;;;;;4.68;2.35;;;;;;;6.13;66.29;98025.16;5093386;28;20020;-86
2021/01/13 10:49:20;;;;;;;2.17;1.92;;;;;;;6.44;67.34;98052.34;5092470;28;20019;-87
2021/01/13 10:51:48;;;;;;;1.67;1.58;;;;;;;6.61;67.42;98051.19;5093393;28;20417;-87
2021/01/13 10:54:17;;;;;;;6.40;2.55;;;;;;;6.45;68.29;98031.94;5092094;28;20027;-86
2021/01/13 10:56:44;;;;;;;1.02;1.02;;;;;;;6.26;66.26;98016.28;5092281;28;20028;-87
2021/01/13 10:59:14;;;;;;;0.43;0.43;;;;;;;6.54;65.91;98038.38;5093248;28;20468;-87
2021/01/13 11:01:44;;;;;;;0.30;0.30;;;;;;;6.80;65.19;98022.13;5092354;28;20479;-87
2021/01/13 11:04:26;;;;;;;0.85;0.85;;;;;;;6.67;65.91;98037.72;5093404;28;20077;-87
2021/01/13 11:07:16;;;;;;;0.50;0.50;;;;;;;6.11;67.51;97991.88;5095771;28;20028;-86
2021/01/13 11:09:47;;;;;;;1.70;1.20;;;;;;;6.08;69.55;98009.22;5097335;28;20020;-87
2021/01/13 11:12:23;;;;;;;0.82;0.82;;;;;;;6.15;68.90;98027.47;5096920;28;20023;-87
2021/01/13 11:14:50;;;;;;;1.20;1.13;;;;;;;5.99;69.05;98008.22;5096401;28;20055;-87
2021/01/13 11:17:20;;;;;;;0.40;0.40;;;;;;;6.05;68.45;98023.75;5096102;28;20490;-86
2021/01/13 11:19:47;;;;;;;0.30;0.30;;;;;;;6.04;69.36;98011.22;5097283;28;20036;-86
2021/01/13 11:22:14;;;;;;;4.28;0.95;;;;;;;5.95;68.56;98002.81;5095949;28;20121;-86
2021/01/13 11:24:43;;;;;;;0.80;0.80;;;;;;;6.06;69.61;98010.81;5097061;28;20103;-87
2021/01/13 11:27:23;;;;;;;2.65;1.83;;;;;;;6.19;69.88;98011.72;5095750;28;20039;-86
2021/01/13 11:29:53;;;;;;;1.63;1.40;;;;;;;6.18;70.29;98007.44;5096037;28;20092;-86
2021/01/13 11:32:26;;;;;;;2.00;1.90;;;;;;;6.24;69.18;98018.66;5096605;28;20043;-86
2021/01/13 11:34:53;;;;;;;1.40;1.40;;;;;;;6.28;68.62;98014.66;5095680;28;20079;-86
2021/01/13 11:37:48;;;;;;;1.00;1.00;;;;;;;6.38;68.69;98021.91;5095767;28;20032;-86
2021/01/13 11:40:38;;;;;;;0.35;0.35;;;;;;;6.47;67.78;98029.53;5104335;28;20024;-86
2021/01/13 11:43:24;;;;;;;3.20;1.65;;;;;;;6.56;67.21;98031.72;5096542;28;20031;-86
2021/01/13 11:46:09;;;;;;;1.98;1.88;;;;;;;6.76;66.63;98027.69;5065095;28;20036;-86
2021/01/13 11:48:54;;;;;;;1.67;1.05;;;;;;;6.74;64.52;98021.09;5095582;28;20020;-86
2021/01/13 11:51:23;;;;;;;0.30;0.30;;;;;;;6.93;63.04;98017.53;5095310;28;20480;-84
2021/01/13 11:53:50;;;;;;;0.85;0.85;;;;;;;6.93;66.08;98009.28;5095293;28;20024;-82
2021/01/13 11:56:29;;;;;;;0.60;0.60;;;;;;;6.90;65.42;98021.09;5096442;28;20020;-88
2021/01/13 11:58:55;;;;;;;1.42;1.33;;;;;;;6.41;63.47;97982.63;5096658;28;20032;-88
2021/01/13 12:01:24;;;;;;;0.45;0.45;;;;;;;6.14;65.37;98001.25;5096400;28;20194;-89
2021/01/13 12:04:04;;;;;;;0.60;0.60;;;;;;;6.57;65.76;98016.78;5096582;28;20024;-88